sensor_id;sensor_type;location;lat;lon;timestamp;P1;durP1;ratioP1;P2;durP2;ratioP2
13197;SDS011;6664;52.514;13.440;2023-08-21T00:00:51;6.90;;;5.80;;
13197;SDS011;6664;52.514;13.440;2023-08-21T00:03:37;16.63;;;6.10;;
13197;SDS011;6664;52.514;13.440;2023-08-21T00:06:26;9.30;;;5.67;;
13197;SDS011;6664;52.514;13.440;2023-08-21T00:09:11;9.63;;;6.53;;
13197;SDS011;6664;52.514;13.440;2023-08-21T00:11:58;6.27;;;5.20;;
13197;SDS011;6664;52.514;13.440;2023-08-21T00:14:44;7.13;;;6.00;;
13197;SDS011;6664;52.514;13.440;2023-08-21T00:17:29;8.40;;;6.23;;
13197;SDS011;6664;52.514;13.440;2023-08-21T00:20:15;6.07;;;5.47;;
13197;SDS011;6664;52.514;13.440;2023-08-21T00:23:00;7.03;;;5.40;;
13197;SDS011;6664;52.514;13.440;2023-08-21T00:25:46;8.37;;;6.20;;
13197;SDS011;6664;52.514;13.440;2023-08-21T00:28:32;8.80;;;6.33;;
13197;SDS011;6664;52.514;13.440;2023-08-21T00:31:20;11.40;;;6.23;;
13197;SDS011;6664;52.514;13.440;2023-08-21T00:34:05;9.93;;;6.50;;
13197;SDS011;6664;52.514;13.440;2023-08-21T00:36:52;6.30;;;5.60;;
13197;SDS011;6664;52.514;13.440;2023-08-21T00:39:37;7.67;;;6.50;;
13197;SDS011;6664;52.514;13.440;2023-08-21T00:42:24;7.67;;;6.00;;
13197;SDS011;6664;52.514;13.440;2023-08-21T00:45:09;7.80;;;6.23;;
13197;SDS011;6664;52.514;13.440;2023-08-21T00:47:59;11.43;;;7.60;;
13197;SDS011;6664;52.514;13.440;2023-08-21T00:50:45;8.93;;;6.23;;
13197;SDS011;6664;52.514;13.440;2023-08-21T00:53:31;8.50;;;6.67;;
13197;SDS011;6664;52.514;13.440;2023-08-21T00:56:17;13.50;;;7.20;;
13197;SDS011;6664;52.514;13.440;2023-08-21T00:59:03;10.93;;;6.90;;
13197;SDS011;6664;52.514;13.440;2023-08-21T01:01:48;9.20;;;6.23;;
13197;SDS011;6664;52.514;13.440;2023-08-21T01:04:34;12.57;;;6.37;;
13197;SDS011;6664;52.514;13.440;2023-08-21T01:07:20;8.83;;;7.10;;
13197;SDS011;6664;52.514;13.440;2023-08-21T01:10:30;9.00;;;6.03;;
13197;SDS011;6664;52.514;13.440;2023-08-21T01:16:14;9.43;;;7.17;;
13197;SDS011;6664;52.514;13.440;2023-08-21T01:19:01;10.33;;;7.00;;
13197;SDS011;6664;52.514;13.440;2023-08-21T01:21:48;7.33;;;6.57;;
13197;SDS011;6664;52.514;13.440;2023-08-21T01:24:34;14.23;;;7.10;;
13197;SDS011;6664;52.514;13.440;2023-08-21T01:27:19;8.10;;;7.17;;
13197;SDS011;6664;52.514;13.440;2023-08-21T01:30:06;12.00;;;6.20;;
13197;SDS011;6664;52.514;13.440;2023-08-21T01:35:45;9.30;;;6.43;;
13197;SDS011;6664;52.514;13.440;2023-08-21T01:38:32;10.60;;;7.30;;
13197;SDS011;6664;52.514;13.440;2023-08-21T01:41:18;10.30;;;6.97;;
13197;SDS011;6664;52.514;13.440;2023-08-21T01:44:04;8.60;;;7.07;;
13197;SDS011;6664;52.514;13.440;2023-08-21T01:46:52;14.67;;;7.40;;
13197;SDS011;6664;52.514;13.440;2023-08-21T01:49:38;6.93;;;6.23;;
13197;SDS011;6664;52.514;13.440;2023-08-21T01:52:25;7.93;;;6.00;;
13197;SDS011;6664;52.514;13.440;2023-08-21T01:55:15;9.80;;;6.33;;
13197;SDS011;6664;52.514;13.440;2023-08-21T01:58:01;7.90;;;6.30;;
13197;SDS011;6664;52.514;13.440;2023-08-21T02:00:49;6.90;;;6.20;;
13197;SDS011;6664;52.514;13.440;2023-08-21T02:03:35;8.47;;;6.07;;
13197;SDS011;6664;52.514;13.440;2023-08-21T02:06:21;8.63;;;7.10;;
13197;SDS011;6664;52.514;13.440;2023-08-21T02:09:07;8.00;;;6.10;;
13197;SDS011;6664;52.514;13.440;2023-08-21T02:11:52;7.60;;;6.70;;
13197;SDS011;6664;52.514;13.440;2023-08-21T02:14:38;8.30;;;6.60;;
13197;SDS011;6664;52.514;13.440;2023-08-21T02:17:27;7.30;;;6.17;;
13197;SDS011;6664;52.514;13.440;2023-08-21T02:20:13;7.60;;;6.10;;
13197;SDS011;6664;52.514;13.440;2023-08-21T02:22:58;15.43;;;7.03;;
13197;SDS011;6664;52.514;13.440;2023-08-21T02:25:46;9.57;;;6.30;;
13197;SDS011;6664;52.514;13.440;2023-08-21T02:28:33;9.30;;;7.03;;
13197;SDS011;6664;52.514;13.440;2023-08-21T02:31:19;16.50;;;6.50;;
13197;SDS011;6664;52.514;13.440;2023-08-21T02:34:07;7.40;;;6.40;;
13197;SDS011;6664;52.514;13.440;2023-08-21T02:36:55;7.20;;;6.30;;
13197;SDS011;6664;52.514;13.440;2023-08-21T02:39:43;7.87;;;5.90;;
13197;SDS011;6664;52.514;13.440;2023-08-21T02:42:29;12.10;;;6.40;;
13197;SDS011;6664;52.514;13.440;2023-08-21T02:45:14;11.33;;;6.53;;
13197;SDS011;6664;52.514;13.440;2023-08-21T02:48:04;7.17;;;5.90;;
13197;SDS011;6664;52.514;13.440;2023-08-21T02:50:50;10.57;;;6.07;;
13197;SDS011;6664;52.514;13.440;2023-08-21T02:53:35;6.93;;;5.70;;
13197;SDS011;6664;52.514;13.440;2023-08-21T02:56:21;11.33;;;5.90;;
13197;SDS011;6664;52.514;13.440;2023-08-21T02:59:09;7.53;;;5.80;;
13197;SDS011;6664;52.514;13.440;2023-08-21T03:01:56;6.73;;;6.00;;
13197;SDS011;6664;52.514;13.440;2023-08-21T03:04:42;7.63;;;6.40;;
13197;SDS011;6664;52.514;13.440;2023-08-21T03:07:27;7.40;;;5.77;;
13197;SDS011;6664;52.514;13.440;2023-08-21T03:10:13;11.07;;;5.70;;
13197;SDS011;6664;52.514;13.440;2023-08-21T03:12:59;6.47;;;5.50;;
13197;SDS011;6664;52.514;13.440;2023-08-21T03:15:45;5.37;;;4.87;;
13197;SDS011;6664;52.514;13.440;2023-08-21T03:18:31;7.07;;;5.23;;
13197;SDS011;6664;52.514;13.440;2023-08-21T03:21:17;6.07;;;5.47;;
13197;SDS011;6664;52.514;13.440;2023-08-21T03:24:02;7.83;;;5.00;;
13197;SDS011;6664;52.514;13.440;2023-08-21T03:26:50;5.80;;;5.27;;
13197;SDS011;6664;52.514;13.440;2023-08-21T03:29:36;8.17;;;5.90;;
13197;SDS011;6664;52.514;13.440;2023-08-21T03:32:21;7.50;;;5.40;;
13197;SDS011;6664;52.514;13.440;2023-08-21T03:35:07;10.50;;;5.07;;
13197;SDS011;6664;52.514;13.440;2023-08-21T03:37:53;11.97;;;5.83;;
13197;SDS011;6664;52.514;13.440;2023-08-21T03:40:39;9.37;;;5.90;;
13197;SDS011;6664;52.514;13.440;2023-08-21T03:43:25;6.10;;;5.00;;
13197;SDS011;6664;52.514;13.440;2023-08-21T03:46:13;7.23;;;5.43;;
13197;SDS011;6664;52.514;13.440;2023-08-21T03:48:58;11.37;;;6.33;;
13197;SDS011;6664;52.514;13.440;2023-08-21T03:51:44;8.40;;;4.80;;
13197;SDS011;6664;52.514;13.440;2023-08-21T03:54:29;9.57;;;5.30;;
13197;SDS011;6664;52.514;13.440;2023-08-21T03:57:15;7.50;;;5.73;;
13197;SDS011;6664;52.514;13.440;2023-08-21T04:00:01;6.50;;;5.30;;
13197;SDS011;6664;52.514;13.440;2023-08-21T04:02:48;7.60;;;5.80;;
13197;SDS011;6664;52.514;13.440;2023-08-21T04:05:34;7.73;;;5.77;;
13197;SDS011;6664;52.514;13.440;2023-08-21T04:08:20;6.37;;;5.23;;
13197;SDS011;6664;52.514;13.440;2023-08-21T04:11:06;5.73;;;5.20;;
13197;SDS011;6664;52.514;13.440;2023-08-21T04:13:52;6.90;;;5.73;;
13197;SDS011;6664;52.514;13.440;2023-08-21T04:16:40;9.50;;;5.60;;
13197;SDS011;6664;52.514;13.440;2023-08-21T04:19:25;6.67;;;5.50;;
13197;SDS011;6664;52.514;13.440;2023-08-21T04:22:14;9.33;;;5.40;;
13197;SDS011;6664;52.514;13.440;2023-08-21T04:25:00;7.07;;;4.67;;
13197;SDS011;6664;52.514;13.440;2023-08-21T04:27:47;10.00;;;5.60;;
13197;SDS011;6664;52.514;13.440;2023-08-21T04:30:33;7.50;;;5.03;;
13197;SDS011;6664;52.514;13.440;2023-08-21T04:33:18;6.50;;;4.60;;
13197;SDS011;6664;52.514;13.440;2023-08-21T04:36:04;8.13;;;5.17;;
13197;SDS011;6664;52.514;13.440;2023-08-21T04:38:50;5.07;;;4.33;;
13197;SDS011;6664;52.514;13.440;2023-08-21T04:41:36;11.83;;;5.70;;
13197;SDS011;6664;52.514;13.440;2023-08-21T04:44:27;6.53;;;4.80;;
13197;SDS011;6664;52.514;13.440;2023-08-21T04:47:19;7.23;;;6.00;;
13197;SDS011;6664;52.514;13.440;2023-08-21T04:50:06;5.43;;;4.93;;
13197;SDS011;6664;52.514;13.440;2023-08-21T04:52:51;6.20;;;5.17;;
13197;SDS011;6664;52.514;13.440;2023-08-21T04:55:37;8.43;;;5.30;;
13197;SDS011;6664;52.514;13.440;2023-08-21T04:58:25;8.90;;;5.43;;
13197;SDS011;6664;52.514;13.440;2023-08-21T05:01:12;6.13;;;5.37;;
13197;SDS011;6664;52.514;13.440;2023-08-21T05:03:58;9.83;;;5.60;;
13197;SDS011;6664;52.514;13.440;2023-08-21T05:06:45;8.90;;;4.90;;
13197;SDS011;6664;52.514;13.440;2023-08-21T05:09:32;7.23;;;5.67;;
13197;SDS011;6664;52.514;13.440;2023-08-21T05:12:20;8.60;;;5.47;;
13197;SDS011;6664;52.514;13.440;2023-08-21T05:15:06;6.40;;;4.80;;
13197;SDS011;6664;52.514;13.440;2023-08-21T05:17:53;9.13;;;5.43;;
13197;SDS011;6664;52.514;13.440;2023-08-21T05:20:38;6.60;;;5.23;;
13197;SDS011;6664;52.514;13.440;2023-08-21T05:23:24;6.60;;;5.70;;
13197;SDS011;6664;52.514;13.440;2023-08-21T05:26:10;6.83;;;5.83;;
13197;SDS011;6664;52.514;13.440;2023-08-21T05:28:56;9.90;;;5.73;;
13197;SDS011;6664;52.514;13.440;2023-08-21T05:31:41;9.13;;;6.00;;
13197;SDS011;6664;52.514;13.440;2023-08-21T05:34:30;11.20;;;6.33;;
13197;SDS011;6664;52.514;13.440;2023-08-21T05:37:16;6.80;;;5.97;;
13197;SDS011;6664;52.514;13.440;2023-08-21T05:40:01;6.97;;;5.70;;
13197;SDS011;6664;52.514;13.440;2023-08-21T05:42:50;7.70;;;5.10;;
13197;SDS011;6664;52.514;13.440;2023-08-21T05:45:38;8.87;;;5.60;;
13197;SDS011;6664;52.514;13.440;2023-08-21T05:48:25;8.07;;;6.10;;
13197;SDS011;6664;52.514;13.440;2023-08-21T05:51:11;8.77;;;5.90;;
13197;SDS011;6664;52.514;13.440;2023-08-21T05:53:59;7.70;;;5.30;;
13197;SDS011;6664;52.514;13.440;2023-08-21T05:56:45;5.23;;;4.73;;
13197;SDS011;6664;52.514;13.440;2023-08-21T05:59:31;10.93;;;6.47;;
13197;SDS011;6664;52.514;13.440;2023-08-21T06:02:17;7.27;;;5.17;;
13197;SDS011;6664;52.514;13.440;2023-08-21T06:05:05;8.53;;;5.63;;
13197;SDS011;6664;52.514;13.440;2023-08-21T06:07:51;10.87;;;5.90;;
13197;SDS011;6664;52.514;13.440;2023-08-21T06:10:39;7.20;;;6.00;;
13197;SDS011;6664;52.514;13.440;2023-08-21T06:13:28;6.70;;;5.37;;
13197;SDS011;6664;52.514;13.440;2023-08-21T06:16:13;6.10;;;5.50;;
13197;SDS011;6664;52.514;13.440;2023-08-21T06:18:59;5.63;;;4.93;;
13197;SDS011;6664;52.514;13.440;2023-08-21T06:21:45;5.80;;;5.30;;
13197;SDS011;6664;52.514;13.440;2023-08-21T06:24:30;10.23;;;5.43;;
13197;SDS011;6664;52.514;13.440;2023-08-21T06:27:16;5.77;;;5.17;;
13197;SDS011;6664;52.514;13.440;2023-08-21T06:30:02;6.00;;;4.90;;
13197;SDS011;6664;52.514;13.440;2023-08-21T06:32:48;10.10;;;4.77;;
13197;SDS011;6664;52.514;13.440;2023-08-21T06:35:37;12.63;;;5.40;;
13197;SDS011;6664;52.514;13.440;2023-08-21T06:38:23;6.00;;;4.60;;
13197;SDS011;6664;52.514;13.440;2023-08-21T06:41:08;5.30;;;4.80;;
13197;SDS011;6664;52.514;13.440;2023-08-21T06:43:57;7.07;;;4.97;;
13197;SDS011;6664;52.514;13.440;2023-08-21T06:46:42;5.17;;;4.67;;
13197;SDS011;6664;52.514;13.440;2023-08-21T06:49:28;8.93;;;5.67;;
13197;SDS011;6664;52.514;13.440;2023-08-21T06:52:14;10.83;;;5.13;;
13197;SDS011;6664;52.514;13.440;2023-08-21T06:55:00;6.87;;;4.70;;
13197;SDS011;6664;52.514;13.440;2023-08-21T06:57:45;8.47;;;4.47;;
13197;SDS011;6664;52.514;13.440;2023-08-21T07:00:30;8.97;;;5.70;;
13197;SDS011;6664;52.514;13.440;2023-08-21T07:03:18;6.10;;;4.80;;
13197;SDS011;6664;52.514;13.440;2023-08-21T07:06:06;6.23;;;5.20;;
13197;SDS011;6664;52.514;13.440;2023-08-21T07:08:52;10.60;;;5.07;;
13197;SDS011;6664;52.514;13.440;2023-08-21T07:11:37;7.00;;;5.07;;
13197;SDS011;6664;52.514;13.440;2023-08-21T07:14:22;6.17;;;5.20;;
13197;SDS011;6664;52.514;13.440;2023-08-21T07:17:08;10.73;;;5.60;;
13197;SDS011;6664;52.514;13.440;2023-08-21T07:19:54;6.90;;;4.43;;
13197;SDS011;6664;52.514;13.440;2023-08-21T07:22:40;5.30;;;4.10;;
13197;SDS011;6664;52.514;13.440;2023-08-21T07:25:25;5.17;;;4.20;;
13197;SDS011;6664;52.514;13.440;2023-08-21T07:28:12;5.80;;;4.13;;
13197;SDS011;6664;52.514;13.440;2023-08-21T07:31:01;4.30;;;3.73;;
13197;SDS011;6664;52.514;13.440;2023-08-21T07:33:46;7.07;;;4.20;;
13197;SDS011;6664;52.514;13.440;2023-08-21T07:36:32;10.03;;;4.40;;
13197;SDS011;6664;52.514;13.440;2023-08-21T07:39:20;4.93;;;3.50;;
13197;SDS011;6664;52.514;13.440;2023-08-21T07:42:06;3.70;;;3.10;;
13197;SDS011;6664;52.514;13.440;2023-08-21T07:44:51;6.33;;;3.97;;
13197;SDS011;6664;52.514;13.440;2023-08-21T07:47:39;10.47;;;4.30;;
13197;SDS011;6664;52.514;13.440;2023-08-21T07:50:25;4.13;;;3.00;;
13197;SDS011;6664;52.514;13.440;2023-08-21T07:53:10;6.10;;;3.50;;
13197;SDS011;6664;52.514;13.440;2023-08-21T07:55:56;4.97;;;3.27;;
13197;SDS011;6664;52.514;13.440;2023-08-21T07:58:43;3.63;;;3.33;;
13197;SDS011;6664;52.514;13.440;2023-08-21T08:01:28;6.33;;;3.40;;
13197;SDS011;6664;52.514;13.440;2023-08-21T08:04:14;3.07;;;2.77;;
13197;SDS011;6664;52.514;13.440;2023-08-21T08:07:00;5.77;;;2.67;;
13197;SDS011;6664;52.514;13.440;2023-08-21T08:09:46;3.40;;;2.23;;
13197;SDS011;6664;52.514;13.440;2023-08-21T08:12:32;3.10;;;2.20;;
13197;SDS011;6664;52.514;13.440;2023-08-21T08:15:19;2.80;;;1.90;;
13197;SDS011;6664;52.514;13.440;2023-08-21T08:18:10;2.03;;;1.67;;
13197;SDS011;6664;52.514;13.440;2023-08-21T08:20:59;2.30;;;2.10;;
13197;SDS011;6664;52.514;13.440;2023-08-21T08:23:45;2.70;;;2.50;;
13197;SDS011;6664;52.514;13.440;2023-08-21T08:26:31;6.07;;;2.40;;
13197;SDS011;6664;52.514;13.440;2023-08-21T08:29:17;2.63;;;2.23;;
13197;SDS011;6664;52.514;13.440;2023-08-21T08:32:02;4.43;;;2.27;;
13197;SDS011;6664;52.514;13.440;2023-08-21T08:34:48;2.83;;;2.17;;
13197;SDS011;6664;52.514;13.440;2023-08-21T08:37:36;3.40;;;2.20;;
13197;SDS011;6664;52.514;13.440;2023-08-21T08:40:22;2.87;;;2.40;;
13197;SDS011;6664;52.514;13.440;2023-08-21T08:43:12;6.27;;;1.90;;
13197;SDS011;6664;52.514;13.440;2023-08-21T08:46:00;2.33;;;2.13;;
13197;SDS011;6664;52.514;13.440;2023-08-21T08:48:48;2.83;;;1.93;;
13197;SDS011;6664;52.514;13.440;2023-08-21T08:51:33;2.17;;;1.57;;
13197;SDS011;6664;52.514;13.440;2023-08-21T08:54:22;1.33;;;1.20;;
13197;SDS011;6664;52.514;13.440;2023-08-21T08:57:12;2.10;;;1.47;;
13197;SDS011;6664;52.514;13.440;2023-08-21T09:00:01;1.30;;;1.20;;
13197;SDS011;6664;52.514;13.440;2023-08-21T09:02:48;1.50;;;1.30;;
13197;SDS011;6664;52.514;13.440;2023-08-21T09:05:39;1.37;;;1.30;;
13197;SDS011;6664;52.514;13.440;2023-08-21T09:08:26;3.03;;;1.23;;
13197;SDS011;6664;52.514;13.440;2023-08-21T09:11:12;1.70;;;1.20;;
13197;SDS011;6664;52.514;13.440;2023-08-21T09:14:00;2.60;;;1.00;;
13197;SDS011;6664;52.514;13.440;2023-08-21T09:19:53;3.33;;;1.20;;
13197;SDS011;6664;52.514;13.440;2023-08-21T09:22:39;0.90;;;0.70;;
13197;SDS011;6664;52.514;13.440;2023-08-21T09:25:25;3.07;;;1.00;;
13197;SDS011;6664;52.514;13.440;2023-08-21T09:28:18;1.00;;;0.90;;
13197;SDS011;6664;52.514;13.440;2023-08-21T09:31:07;3.17;;;1.00;;
13197;SDS011;6664;52.514;13.440;2023-08-21T09:33:57;2.30;;;0.97;;
13197;SDS011;6664;52.514;13.440;2023-08-21T09:36:53;1.23;;;1.00;;
13197;SDS011;6664;52.514;13.440;2023-08-21T09:39:40;2.60;;;0.90;;
13197;SDS011;6664;52.514;13.440;2023-08-21T09:42:28;1.03;;;1.03;;
13197;SDS011;6664;52.514;13.440;2023-08-21T09:45:19;0.90;;;0.90;;
13197;SDS011;6664;52.514;13.440;2023-08-21T09:48:09;1.27;;;1.10;;
13197;SDS011;6664;52.514;13.440;2023-08-21T09:50:55;1.27;;;1.00;;
13197;SDS011;6664;52.514;13.440;2023-08-21T09:53:44;1.47;;;1.00;;
13197;SDS011;6664;52.514;13.440;2023-08-21T09:56:31;2.60;;;1.20;;
13197;SDS011;6664;52.514;13.440;2023-08-21T09:59:20;1.70;;;1.00;;
13197;SDS011;6664;52.514;13.440;2023-08-21T10:02:08;2.13;;;1.03;;
13197;SDS011;6664;52.514;13.440;2023-08-21T10:04:54;1.23;;;0.97;;
13197;SDS011;6664;52.514;13.440;2023-08-21T10:07:44;1.37;;;1.00;;
13197;SDS011;6664;52.514;13.440;2023-08-21T10:10:35;2.90;;;1.00;;
13197;SDS011;6664;52.514;13.440;2023-08-21T10:13:24;1.67;;;1.00;;
13197;SDS011;6664;52.514;13.440;2023-08-21T10:16:10;4.60;;;1.27;;
13197;SDS011;6664;52.514;13.440;2023-08-21T10:19:01;0.87;;;0.87;;
13197;SDS011;6664;52.514;13.440;2023-08-21T10:21:50;2.13;;;1.20;;
13197;SDS011;6664;52.514;13.440;2023-08-21T10:24:44;0.70;;;0.70;;
13197;SDS011;6664;52.514;13.440;2023-08-21T10:27:33;1.37;;;1.10;;
13197;SDS011;6664;52.514;13.440;2023-08-21T10:30:24;2.13;;;1.23;;
13197;SDS011;6664;52.514;13.440;2023-08-21T10:33:11;2.87;;;1.10;;
13197;SDS011;6664;52.514;13.440;2023-08-21T10:35:57;2.03;;;1.20;;
13197;SDS011;6664;52.514;13.440;2023-08-21T10:39:04;1.03;;;0.93;;
13197;SDS011;6664;52.514;13.440;2023-08-21T10:44:49;0.90;;;0.90;;
13197;SDS011;6664;52.514;13.440;2023-08-21T10:47:40;5.03;;;1.10;;
13197;SDS011;6664;52.514;13.440;2023-08-21T10:50:26;1.97;;;1.00;;
13197;SDS011;6664;52.514;13.440;2023-08-21T10:53:12;1.07;;;0.90;;
13197;SDS011;6664;52.514;13.440;2023-08-21T10:56:02;2.40;;;1.20;;
13197;SDS011;6664;52.514;13.440;2023-08-21T10:58:51;1.50;;;0.83;;
13197;SDS011;6664;52.514;13.440;2023-08-21T11:01:43;2.70;;;1.20;;
13197;SDS011;6664;52.514;13.440;2023-08-21T11:04:39;3.63;;;1.00;;
13197;SDS011;6664;52.514;13.440;2023-08-21T11:07:26;0.90;;;0.70;;
13197;SDS011;6664;52.514;13.440;2023-08-21T11:10:15;0.80;;;0.80;;
13197;SDS011;6664;52.514;13.440;2023-08-21T11:13:05;0.70;;;0.70;;
13197;SDS011;6664;52.514;13.440;2023-08-21T11:16:01;4.10;;;0.90;;
13197;SDS011;6664;52.514;13.440;2023-08-21T11:18:49;10.13;;;1.27;;
13197;SDS011;6664;52.514;13.440;2023-08-21T11:21:39;6.10;;;1.40;;
13197;SDS011;6664;52.514;13.440;2023-08-21T11:24:29;1.97;;;1.33;;
13197;SDS011;6664;52.514;13.440;2023-08-21T11:27:17;2.20;;;1.20;;
13197;SDS011;6664;52.514;13.440;2023-08-21T11:30:03;3.03;;;1.30;;
13197;SDS011;6664;52.514;13.440;2023-08-21T11:33:04;1.57;;;0.97;;
13197;SDS011;6664;52.514;13.440;2023-08-21T11:35:56;1.10;;;0.90;;
13197;SDS011;6664;52.514;13.440;2023-08-21T11:38:43;1.87;;;0.97;;
13197;SDS011;6664;52.514;13.440;2023-08-21T11:41:58;1.80;;;0.90;;
13197;SDS011;6664;52.514;13.440;2023-08-21T11:44:45;1.27;;;1.17;;
13197;SDS011;6664;52.514;13.440;2023-08-21T11:47:35;5.07;;;1.00;;
13197;SDS011;6664;52.514;13.440;2023-08-21T11:50:22;1.37;;;1.03;;
13197;SDS011;6664;52.514;13.440;2023-08-21T11:53:08;1.57;;;1.17;;
13197;SDS011;6664;52.514;13.440;2023-08-21T11:55:56;1.03;;;1.00;;
13197;SDS011;6664;52.514;13.440;2023-08-21T11:58:43;1.90;;;0.80;;
13197;SDS011;6664;52.514;13.440;2023-08-21T12:01:34;1.03;;;0.80;;
13197;SDS011;6664;52.514;13.440;2023-08-21T12:04:25;1.07;;;1.07;;
13197;SDS011;6664;52.514;13.440;2023-08-21T12:07:12;1.67;;;1.13;;
13197;SDS011;6664;52.514;13.440;2023-08-21T12:09:58;0.80;;;0.80;;
13197;SDS011;6664;52.514;13.440;2023-08-21T12:12:44;2.00;;;1.00;;
13197;SDS011;6664;52.514;13.440;2023-08-21T12:15:29;5.83;;;0.83;;
13197;SDS011;6664;52.514;13.440;2023-08-21T12:18:18;1.13;;;1.00;;
13197;SDS011;6664;52.514;13.440;2023-08-21T12:21:03;1.27;;;0.90;;
13197;SDS011;6664;52.514;13.440;2023-08-21T12:23:48;1.00;;;0.90;;
13197;SDS011;6664;52.514;13.440;2023-08-21T12:26:34;1.13;;;1.00;;
13197;SDS011;6664;52.514;13.440;2023-08-21T12:29:32;1.10;;;0.90;;
13197;SDS011;6664;52.514;13.440;2023-08-21T12:32:18;1.17;;;0.93;;
13197;SDS011;6664;52.514;13.440;2023-08-21T12:35:06;2.57;;;0.97;;
13197;SDS011;6664;52.514;13.440;2023-08-21T12:37:55;1.83;;;1.27;;
13197;SDS011;6664;52.514;13.440;2023-08-21T12:40:44;1.00;;;0.90;;
13197;SDS011;6664;52.514;13.440;2023-08-21T12:43:30;3.43;;;1.10;;
13197;SDS011;6664;52.514;13.440;2023-08-21T12:46:17;1.97;;;1.00;;
13197;SDS011;6664;52.514;13.440;2023-08-21T12:49:03;1.97;;;1.10;;
13197;SDS011;6664;52.514;13.440;2023-08-21T12:51:49;1.10;;;1.00;;
13197;SDS011;6664;52.514;13.440;2023-08-21T12:54:38;1.60;;;0.97;;
13197;SDS011;6664;52.514;13.440;2023-08-21T12:57:24;2.70;;;1.27;;
13197;SDS011;6664;52.514;13.440;2023-08-21T13:00:13;3.80;;;0.90;;
13197;SDS011;6664;52.514;13.440;2023-08-21T13:02:59;3.20;;;1.27;;
13197;SDS011;6664;52.514;13.440;2023-08-21T13:05:49;1.10;;;1.00;;
13197;SDS011;6664;52.514;13.440;2023-08-21T13:08:34;4.15;;;0.90;;
13197;SDS011;6664;52.514;13.440;2023-08-21T13:11:20;0.70;;;0.70;;
13197;SDS011;6664;52.514;13.440;2023-08-21T13:14:06;1.00;;;0.98;;
13197;SDS011;6664;52.514;13.440;2023-08-21T13:16:51;1.55;;;0.70;;
13197;SDS011;6664;52.514;13.440;2023-08-21T13:19:41;0.93;;;0.60;;
13197;SDS011;6664;52.514;13.440;2023-08-21T13:22:29;0.60;;;0.60;;
13197;SDS011;6664;52.514;13.440;2023-08-21T13:25:29;0.82;;;0.80;;
13197;SDS011;6664;52.514;13.440;2023-08-21T13:28:15;0.90;;;0.73;;
13197;SDS011;6664;52.514;13.440;2023-08-21T13:31:01;1.10;;;0.80;;
13197;SDS011;6664;52.514;13.440;2023-08-21T13:33:47;4.78;;;0.95;;
13197;SDS011;6664;52.514;13.440;2023-08-21T13:36:37;1.63;;;0.65;;
13197;SDS011;6664;52.514;13.440;2023-08-21T13:39:22;1.40;;;0.75;;
13197;SDS011;6664;52.514;13.440;2023-08-21T13:42:09;1.08;;;0.80;;
13197;SDS011;6664;52.514;13.440;2023-08-21T13:44:56;0.90;;;0.90;;
13197;SDS011;6664;52.514;13.440;2023-08-21T13:47:43;0.95;;;0.70;;
13197;SDS011;6664;52.514;13.440;2023-08-21T13:50:33;1.33;;;0.77;;
13197;SDS011;6664;52.514;13.440;2023-08-21T13:53:19;7.35;;;0.90;;
13197;SDS011;6664;52.514;13.440;2023-08-21T13:56:05;2.15;;;1.00;;
13197;SDS011;6664;52.514;13.440;2023-08-21T13:58:51;0.70;;;0.70;;
13197;SDS011;6664;52.514;13.440;2023-08-21T14:01:36;1.02;;;0.80;;
13197;SDS011;6664;52.514;13.440;2023-08-21T14:04:21;1.48;;;0.77;;
13197;SDS011;6664;52.514;13.440;2023-08-21T14:07:10;1.35;;;0.80;;
13197;SDS011;6664;52.514;13.440;2023-08-21T14:09:56;0.93;;;0.60;;
13197;SDS011;6664;52.514;13.440;2023-08-21T14:12:44;1.23;;;0.60;;
13197;SDS011;6664;52.514;13.440;2023-08-21T14:15:29;0.80;;;0.80;;
13197;SDS011;6664;52.514;13.440;2023-08-21T14:18:15;0.60;;;0.60;;
13197;SDS011;6664;52.514;13.440;2023-08-21T14:21:01;0.63;;;0.63;;
13197;SDS011;6664;52.514;13.440;2023-08-21T14:23:49;1.02;;;0.73;;
13197;SDS011;6664;52.514;13.440;2023-08-21T14:26:38;0.65;;;0.65;;
13197;SDS011;6664;52.514;13.440;2023-08-21T14:29:28;0.85;;;0.85;;
13197;SDS011;6664;52.514;13.440;2023-08-21T14:32:14;0.95;;;0.68;;
13197;SDS011;6664;52.514;13.440;2023-08-21T14:35:00;0.95;;;0.95;;
13197;SDS011;6664;52.514;13.440;2023-08-21T14:37:48;0.65;;;0.65;;
13197;SDS011;6664;52.514;13.440;2023-08-21T14:40:33;1.10;;;0.80;;
13197;SDS011;6664;52.514;13.440;2023-08-21T14:43:18;1.90;;;0.68;;
13197;SDS011;6664;52.514;13.440;2023-08-21T14:46:04;1.40;;;0.68;;
13197;SDS011;6664;52.514;13.440;2023-08-21T14:48:50;1.20;;;0.80;;
13197;SDS011;6664;52.514;13.440;2023-08-21T14:51:35;1.88;;;0.80;;
13197;SDS011;6664;52.514;13.440;2023-08-21T14:54:22;0.83;;;0.70;;
13197;SDS011;6664;52.514;13.440;2023-08-21T14:57:08;0.93;;;0.63;;
13197;SDS011;6664;52.514;13.440;2023-08-21T14:59:55;1.27;;;0.90;;
13197;SDS011;6664;52.514;13.440;2023-08-21T15:02:41;0.87;;;0.87;;
13197;SDS011;6664;52.514;13.440;2023-08-21T15:05:27;1.00;;;0.83;;
13197;SDS011;6664;52.514;13.440;2023-08-21T15:08:15;1.00;;;0.90;;
13197;SDS011;6664;52.514;13.440;2023-08-21T15:11:00;0.83;;;0.83;;
13197;SDS011;6664;52.514;13.440;2023-08-21T15:13:46;1.40;;;0.90;;
13197;SDS011;6664;52.514;13.440;2023-08-21T15:16:36;1.10;;;0.93;;
13197;SDS011;6664;52.514;13.440;2023-08-21T15:19:22;1.00;;;1.00;;
13197;SDS011;6664;52.514;13.440;2023-08-21T15:22:08;1.33;;;0.80;;
13197;SDS011;6664;52.514;13.440;2023-08-21T15:24:57;1.00;;;0.77;;
13197;SDS011;6664;52.514;13.440;2023-08-21T15:27:42;3.63;;;1.00;;
13197;SDS011;6664;52.514;13.440;2023-08-21T15:30:28;1.00;;;0.70;;
13197;SDS011;6664;52.514;13.440;2023-08-21T15:33:16;1.07;;;0.87;;
13197;SDS011;6664;52.514;13.440;2023-08-21T15:36:04;1.10;;;1.07;;
13197;SDS011;6664;52.514;13.440;2023-08-21T15:38:50;1.90;;;1.00;;
13197;SDS011;6664;52.514;13.440;2023-08-21T15:41:35;2.20;;;1.00;;
13197;SDS011;6664;52.514;13.440;2023-08-21T15:44:26;1.90;;;0.90;;
13197;SDS011;6664;52.514;13.440;2023-08-21T15:47:13;1.90;;;0.80;;
13197;SDS011;6664;52.514;13.440;2023-08-21T15:50:19;1.17;;;1.00;;
13197;SDS011;6664;52.514;13.440;2023-08-21T15:53:05;1.83;;;0.87;;
13197;SDS011;6664;52.514;13.440;2023-08-21T15:55:52;2.60;;;1.00;;
13197;SDS011;6664;52.514;13.440;2023-08-21T15:58:38;1.67;;;0.90;;
13197;SDS011;6664;52.514;13.440;2023-08-21T16:01:23;2.27;;;1.10;;
13197;SDS011;6664;52.514;13.440;2023-08-21T16:04:09;0.93;;;0.80;;
13197;SDS011;6664;52.514;13.440;2023-08-21T16:06:56;1.67;;;1.10;;
13197;SDS011;6664;52.514;13.440;2023-08-21T16:09:42;4.70;;;1.00;;
13197;SDS011;6664;52.514;13.440;2023-08-21T16:12:27;1.30;;;1.10;;
13197;SDS011;6664;52.514;13.440;2023-08-21T16:15:12;1.07;;;0.80;;
13197;SDS011;6664;52.514;13.440;2023-08-21T16:17:58;1.03;;;0.70;;
13197;SDS011;6664;52.514;13.440;2023-08-21T16:20:44;1.07;;;0.90;;
13197;SDS011;6664;52.514;13.440;2023-08-21T16:23:32;2.33;;;0.80;;
13197;SDS011;6664;52.514;13.440;2023-08-21T16:26:20;1.20;;;1.10;;
13197;SDS011;6664;52.514;13.440;2023-08-21T16:29:06;1.00;;;0.90;;
13197;SDS011;6664;52.514;13.440;2023-08-21T16:31:52;1.80;;;0.87;;
13197;SDS011;6664;52.514;13.440;2023-08-21T16:34:38;1.30;;;1.10;;
13197;SDS011;6664;52.514;13.440;2023-08-21T16:37:23;4.63;;;1.17;;
13197;SDS011;6664;52.514;13.440;2023-08-21T16:40:09;1.60;;;1.00;;
13197;SDS011;6664;52.514;13.440;2023-08-21T16:42:56;1.57;;;0.93;;
13197;SDS011;6664;52.514;13.440;2023-08-21T16:45:46;1.73;;;1.63;;
13197;SDS011;6664;52.514;13.440;2023-08-21T16:48:32;3.10;;;1.37;;
13197;SDS011;6664;52.514;13.440;2023-08-21T16:51:17;2.03;;;1.10;;
13197;SDS011;6664;52.514;13.440;2023-08-21T16:54:07;1.70;;;0.93;;
13197;SDS011;6664;52.514;13.440;2023-08-21T16:56:53;1.20;;;1.10;;